sensor_id;sensor_type;location;lat;lon;timestamp;pressure;altitude;pressure_sealevel;temperature;humidity
6034;BME280;3045;43.226;27.858;2023-01-30T00:00:50;146771.69;;;2.84;100.00
6034;BME280;3045;43.226;27.858;2023-01-30T00:03:19;146751.53;;;2.76;100.00
6034;BME280;3045;43.226;27.858;2023-01-30T00:05:47;146703.84;;;2.57;100.00
6034;BME280;3045;43.226;27.858;2023-01-30T00:08:14;146723.94;;;2.65;100.00
6034;BME280;3045;43.226;27.858;2023-01-30T00:10:41;146718.94;;;2.63;100.00
6034;BME280;3045;43.226;27.858;2023-01-30T00:13:08;146727.72;;;2.66;100.00
6034;BME280;3045;43.226;27.858;2023-01-30T00:15:35;146708.91;;;2.59;100.00
6034;BME280;3045;43.226;27.858;2023-01-30T00:18:03;146794.25;;;2.93;100.00
6034;BME280;3045;43.226;27.858;2023-01-30T00:20:31;146811.88;;;3.00;100.00
6034;BME280;3045;43.226;27.858;2023-01-30T00:22:58;146831.97;;;3.08;100.00
6034;BME280;3045;43.226;27.858;2023-01-30T00:25:26;146824.44;;;3.05;100.00
6034;BME280;3045;43.226;27.858;2023-01-30T00:27:54;146811.88;;;3.00;100.00
6034;BME280;3045;43.226;27.858;2023-01-30T00:30:21;146829.44;;;3.07;100.00
6034;BME280;3045;43.226;27.858;2023-01-30T00:32:53;146810.59;;;3.00;100.00
6034;BME280;3045;43.226;27.858;2023-01-30T00:35:20;146847.00;;;3.14;100.00
6034;BME280;3045;43.226;27.858;2023-01-30T00:37:48;146849.53;;;3.15;100.00
6034;BME280;3045;43.226;27.858;2023-01-30T00:40:15;146850.78;;;3.16;100.00
6034;BME280;3045;43.226;27.858;2023-01-30T00:42:42;146850.78;;;3.16;100.00
6034;BME280;3045;43.226;27.858;2023-01-30T00:45:32;146825.66;;;3.06;100.00
6034;BME280;3045;43.226;27.858;2023-01-30T00:48:16;146862.09;;;3.20;100.00
6034;BME280;3045;43.226;27.858;2023-01-30T00:50:43;146867.09;;;3.22;100.00
6034;BME280;3045;43.226;27.858;2023-01-30T00:53:13;146811.88;;;3.00;100.00
6034;BME280;3045;43.226;27.858;2023-01-30T00:55:40;146826.91;;;3.06;100.00
6034;BME280;3045;43.226;27.858;2023-01-30T00:58:07;146824.44;;;3.05;100.00
6034;BME280;3045;43.226;27.858;2023-01-30T01:00:35;146764.13;;;2.81;100.00
6034;BME280;3045;43.226;27.858;2023-01-30T01:03:02;146764.13;;;2.81;100.00
6034;BME280;3045;43.226;27.858;2023-01-30T01:05:29;146769.16;;;2.83;100.00
6034;BME280;3045;43.226;27.858;2023-01-30T01:07:56;146759.13;;;2.79;100.00
6034;BME280;3045;43.226;27.858;2023-01-30T01:10:24;146764.13;;;2.81;100.00
6034;BME280;3045;43.226;27.858;2023-01-30T01:12:51;146749.06;;;2.75;100.00
6034;BME280;3045;43.226;27.858;2023-01-30T01:15:19;146794.25;;;2.93;100.00
6034;BME280;3045;43.226;27.858;2023-01-30T01:17:47;146816.84;;;3.02;100.00
6034;BME280;3045;43.226;27.858;2023-01-30T01:20:14;146801.81;;;2.96;100.00
6034;BME280;3045;43.226;27.858;2023-01-30T01:22:41;146781.72;;;2.88;100.00
6034;BME280;3045;43.226;27.858;2023-01-30T01:25:08;146727.72;;;2.66;100.00
6034;BME280;3045;43.226;27.858;2023-01-30T01:27:37;146711.38;;;2.60;100.00
6034;BME280;3045;43.226;27.858;2023-01-30T01:30:05;146711.38;;;2.60;100.00
6034;BME280;3045;43.226;27.858;2023-01-30T01:32:33;146722.69;;;2.64;100.00
6034;BME280;3045;43.226;27.858;2023-01-30T01:35:00;146725.19;;;2.65;100.00
6034;BME280;3045;43.226;27.858;2023-01-30T01:37:27;146742.75;;;2.72;100.00
6034;BME280;3045;43.226;27.858;2023-01-30T01:39:54;146756.59;;;2.78;100.00
6034;BME280;3045;43.226;27.858;2023-01-30T01:42:40;146788.00;;;2.91;100.00
6034;BME280;3045;43.226;27.858;2023-01-30T01:45:16;146756.59;;;2.78;100.00
6034;BME280;3045;43.226;27.858;2023-01-30T01:47:48;146731.47;;;2.68;100.00
6034;BME280;3045;43.226;27.858;2023-01-30T01:50:19;146730.19;;;2.67;100.00
6034;BME280;3045;43.226;27.858;2023-01-30T01:52:50;146731.47;;;2.68;100.00
6034;BME280;3045;43.226;27.858;2023-01-30T01:55:19;146673.72;;;2.45;100.00
6034;BME280;3045;43.226;27.858;2023-01-30T01:57:53;146700.06;;;2.55;100.00
6034;BME280;3045;43.226;27.858;2023-01-30T02:00:22;146681.25;;;2.48;100.00
6034;BME280;3045;43.226;27.858;2023-01-30T02:02:53;146663.69;;;2.41;100.00
6034;BME280;3045;43.226;27.858;2023-01-30T02:05:22;146676.25;;;2.46;100.00
6034;BME280;3045;43.226;27.858;2023-01-30T02:07:54;146623.53;;;2.24;100.00
6034;BME280;3045;43.226;27.858;2023-01-30T02:10:29;146631.06;;;2.27;100.00
6034;BME280;3045;43.226;27.858;2023-01-30T02:12:59;146588.38;;;2.10;100.00
6034;BME280;3045;43.226;27.858;2023-01-30T02:15:26;146598.41;;;2.14;100.00
6034;BME280;3045;43.226;27.858;2023-01-30T02:17:53;146570.81;;;2.03;100.00
6034;BME280;3045;43.226;27.858;2023-01-30T02:20:27;146594.63;;;2.13;100.00
6034;BME280;3045;43.226;27.858;2023-01-30T02:23:31;146580.84;;;2.07;100.00
6034;BME280;3045;43.226;27.858;2023-01-30T02:26:37;146485.50;;;1.69;100.00
6034;BME280;3045;43.226;27.858;2023-01-30T02:29:41;146589.63;;;2.11;100.00
6034;BME280;3045;43.226;27.858;2023-01-30T02:32:16;146563.25;;;2.00;100.00
6034;BME280;3045;43.226;27.858;2023-01-30T02:34:50;146593.38;;;2.12;100.00
6034;BME280;3045;43.226;27.858;2023-01-30T02:37:28;146553.22;;;1.96;100.00
6034;BME280;3045;43.226;27.858;2023-01-30T02:40:17;146562.00;;;2.00;100.00
6034;BME280;3045;43.226;27.858;2023-01-30T02:42:53;146575.81;;;2.05;100.00
6034;BME280;3045;43.226;27.858;2023-01-30T02:45:29;146569.56;;;2.03;100.00
6034;BME280;3045;43.226;27.858;2023-01-30T02:48:01;146575.81;;;2.05;100.00
6034;BME280;3045;43.226;27.858;2023-01-30T02:50:33;146572.03;;;2.04;100.00
6034;BME280;3045;43.226;27.858;2023-01-30T02:53:03;146580.84;;;2.07;100.00
6034;BME280;3045;43.226;27.858;2023-01-30T02:55:31;146597.16;;;2.14;100.00
6034;BME280;3045;43.226;27.858;2023-01-30T02:57:58;146587.13;;;2.10;100.00
6034;BME280;3045;43.226;27.858;2023-01-30T03:00:32;146610.97;;;2.19;100.00
6034;BME280;3045;43.226;27.858;2023-01-30T03:03:22;146594.63;;;2.13;100.00
6034;BME280;3045;43.226;27.858;2023-01-30T03:06:09;146569.56;;;2.03;100.00
6034;BME280;3045;43.226;27.858;2023-01-30T03:08:49;146487.97;;;1.70;100.00
6034;BME280;3045;43.226;27.858;2023-01-30T03:11:23;146533.13;;;1.88;100.00
6034;BME280;3045;43.226;27.858;2023-01-30T03:14:00;146498.03;;;1.74;100.00
6034;BME280;3045;43.226;27.858;2023-01-30T03:16:32;146493.00;;;1.72;100.00
6034;BME280;3045;43.226;27.858;2023-01-30T03:19:04;146485.50;;;1.69;100.00
6034;BME280;3045;43.226;27.858;2023-01-30T03:21:31;146504.28;;;1.76;100.00
6034;BME280;3045;43.226;27.858;2023-01-30T03:23:58;146487.97;;;1.70;100.00
6034;BME280;3045;43.226;27.858;2023-01-30T03:26:28;146450.34;;;1.55;100.00
6034;BME280;3045;43.226;27.858;2023-01-30T03:28:59;146456.59;;;1.57;100.00
6034;BME280;3045;43.226;27.858;2023-01-30T03:31:27;146498.03;;;1.74;100.00
6034;BME280;3045;43.226;27.858;2023-01-30T03:33:53;146452.88;;;1.56;100.00
6034;BME280;3045;43.226;27.858;2023-01-30T03:36:22;146203.75;;;1.57;100.00
6034;BME280;3045;43.226;27.858;2023-01-30T03:38:50;145237.63;;;1.68;100.00
6034;BME280;3045;43.226;27.858;2023-01-30T03:41:17;138278.50;;;1.46;100.00
6034;BME280;3045;43.226;27.858;2023-01-30T03:43:44;131620.44;;;1.45;100.00
6034;BME280;3045;43.226;27.858;2023-01-30T03:46:11;130077.88;;;1.57;100.00
6034;BME280;3045;43.226;27.858;2023-01-30T03:48:37;126737.66;;;1.43;100.00
6034;BME280;3045;43.226;27.858;2023-01-30T03:51:04;121943.66;;;1.47;100.00
6034;BME280;3045;43.226;27.858;2023-01-30T03:53:33;119447.97;;;1.43;100.00
6034;BME280;3045;43.226;27.858;2023-01-30T03:56:00;109943.53;;;1.46;100.00
6034;BME280;3045;43.226;27.858;2023-01-30T03:58:26;110714.09;;;1.53;100.00
6034;BME280;3045;43.226;27.858;2023-01-30T04:00:54;113311.41;;;1.44;100.00
6034;BME280;3045;43.226;27.858;2023-01-30T04:03:22;114884.44;;;1.45;100.00
6034;BME280;3045;43.226;27.858;2023-01-30T04:05:49;117106.13;;;1.55;100.00
6034;BME280;3045;43.226;27.858;2023-01-30T04:08:16;117987.78;;;1.56;100.00
6034;BME280;3045;43.226;27.858;2023-01-30T04:10:44;118693.88;;;1.63;100.00
6034;BME280;3045;43.226;27.858;2023-01-30T04:13:11;119362.00;;;1.59;100.00
6034;BME280;3045;43.226;27.858;2023-01-30T04:15:37;120883.53;;;1.57;100.00
6034;BME280;3045;43.226;27.858;2023-01-30T04:18:04;127095.59;;;1.62;100.00
6034;BME280;3045;43.226;27.858;2023-01-30T04:20:31;132891.91;;;1.65;100.00
6034;BME280;3045;43.226;27.858;2023-01-30T04:22:58;133938.53;;;1.74;100.00
6034;BME280;3045;43.226;27.858;2023-01-30T04:25:25;132515.53;;;1.71;100.00
6034;BME280;3045;43.226;27.858;2023-01-30T04:27:53;133615.34;;;1.63;100.00
6034;BME280;3045;43.226;27.858;2023-01-30T04:30:20;130884.06;;;1.70;100.00
6034;BME280;3045;43.226;27.858;2023-01-30T04:32:47;122023.97;;;1.61;100.00
6034;BME280;3045;43.226;27.858;2023-01-30T04:35:14;118349.50;;;1.54;100.00
6034;BME280;3045;43.226;27.858;2023-01-30T04:37:41;111854.44;;;1.44;100.00
6034;BME280;3045;43.226;27.858;2023-01-30T04:40:09;107349.66;;;1.35;100.00
6034;BME280;3045;43.226;27.858;2023-01-30T04:42:36;94735.38;;;1.10;100.00
6034;BME280;3045;43.226;27.858;2023-01-30T04:45:05;90695.69;;;1.38;100.00
6034;BME280;3045;43.226;27.858;2023-01-30T04:47:32;89313.84;;;1.33;100.00
6034;BME280;3045;43.226;27.858;2023-01-30T04:49:59;85145.78;;;1.27;100.00
6034;BME280;3045;43.226;27.858;2023-01-30T04:52:26;81245.19;;;1.41;100.00
6034;BME280;3045;43.226;27.858;2023-01-30T04:54:52;76863.53;;;1.39;100.00
6034;BME280;3045;43.226;27.858;2023-01-30T04:57:19;78026.13;;;1.37;100.00
6034;BME280;3045;43.226;27.858;2023-01-30T04:59:46;78114.19;;;1.29;100.00
6034;BME280;3045;43.226;27.858;2023-01-30T05:02:14;76491.00;;;1.27;100.00
6034;BME280;3045;43.226;27.858;2023-01-30T05:04:41;74203.19;;;1.30;100.00
6034;BME280;3045;43.226;27.858;2023-01-30T05:07:08;74674.53;;;1.27;100.00
6034;BME280;3045;43.226;27.858;2023-01-30T05:09:36;72615.28;;;1.22;100.00
6034;BME280;3045;43.226;27.858;2023-01-30T05:12:03;72223.31;;;1.22;100.00
6034;BME280;3045;43.226;27.858;2023-01-30T05:14:30;69257.47;;;0.88;100.00
6034;BME280;3045;43.226;27.858;2023-01-30T05:16:57;67962.81;;;1.18;100.00
6034;BME280;3045;43.226;27.858;2023-01-30T05:19:25;68255.94;;;1.16;100.00
6034;BME280;3045;43.226;27.858;2023-01-30T05:21:52;68274.69;;;1.17;100.00
6034;BME280;3045;43.226;27.858;2023-01-30T05:24:19;68588.22;;;1.19;100.00
6034;BME280;3045;43.226;27.858;2023-01-30T05:26:46;70721.44;;;1.16;100.00
6034;BME280;3045;43.226;27.858;2023-01-30T05:29:13;71031.59;;;1.15;100.00
6034;BME280;3045;43.226;27.858;2023-01-30T05:31:40;71736.09;;;1.12;100.00
6034;BME280;3045;43.226;27.858;2023-01-30T05:34:10;71880.47;;;1.15;100.00
6034;BME280;3045;43.226;27.858;2023-01-30T05:36:38;72046.28;;;1.11;100.00
6034;BME280;3045;43.226;27.858;2023-01-30T05:39:05;71693.41;;;1.12;100.00
6034;BME280;3045;43.226;27.858;2023-01-30T05:41:32;71667.16;;;1.05;100.00
6034;BME280;3045;43.226;27.858;2023-01-30T05:43:59;70116.06;;;1.08;100.00
6034;BME280;3045;43.226;27.858;2023-01-30T05:46:26;68383.31;;;1.15;100.00
6034;BME280;3045;43.226;27.858;2023-01-30T05:48:53;66390.75;;;0.86;100.00
6034;BME280;3045;43.226;27.858;2023-01-30T05:51:21;64348.81;;;1.02;100.00
6034;BME280;3045;43.226;27.858;2023-01-30T05:53:50;64759.44;;;0.95;100.00
6034;BME280;3045;43.226;27.858;2023-01-30T05:56:17;66208.03;;;1.02;100.00
6034;BME280;3045;43.226;27.858;2023-01-30T05:58:49;64322.38;;;1.03;100.00
6034;BME280;3045;43.226;27.858;2023-01-30T06:01:16;64412.66;;;1.17;100.00
6034;BME280;3045;43.226;27.858;2023-01-30T06:03:43;65256.94;;;1.05;100.00
6034;BME280;3045;43.226;27.858;2023-01-30T06:06:11;67180.97;;;1.08;100.00
6034;BME280;3045;43.226;27.858;2023-01-30T06:08:38;68696.53;;;1.32;100.00
6034;BME280;3045;43.226;27.858;2023-01-30T06:11:15;67518.06;;;1.26;100.00
6034;BME280;3045;43.226;27.858;2023-01-30T06:13:42;67734.59;;;1.25;100.00
6034;BME280;3045;43.226;27.858;2023-01-30T06:16:11;68269.53;;;1.27;100.00
6034;BME280;3045;43.226;27.858;2023-01-30T06:18:39;67819.72;;;1.35;100.00
6034;BME280;3045;43.226;27.858;2023-01-30T06:21:06;69938.88;;;1.13;100.00
6034;BME280;3045;43.226;27.858;2023-01-30T06:23:34;69821.09;;;1.36;100.00
6034;BME280;3045;43.226;27.858;2023-01-30T06:26:01;69621.00;;;1.32;100.00
6034;BME280;3045;43.226;27.858;2023-01-30T06:28:29;71143.31;;;1.16;100.00
6034;BME280;3045;43.226;27.858;2023-01-30T06:30:56;71935.63;;;1.23;100.00
6034;BME280;3045;43.226;27.858;2023-01-30T06:33:23;72375.91;;;1.30;100.00
6034;BME280;3045;43.226;27.858;2023-01-30T06:35:51;71584.66;;;1.20;100.00
6034;BME280;3045;43.226;27.858;2023-01-30T06:38:18;72785.56;;;1.44;100.00
6034;BME280;3045;43.226;27.858;2023-01-30T06:40:46;74016.75;;;1.40;100.00
6034;BME280;3045;43.226;27.858;2023-01-30T06:43:14;74203.84;;;1.30;100.00
6034;BME280;3045;43.226;27.858;2023-01-30T06:45:42;73168.22;;;1.38;100.00
6034;BME280;3045;43.226;27.858;2023-01-30T06:48:09;71819.09;;;1.49;100.00
6034;BME280;3045;43.226;27.858;2023-01-30T06:50:36;68679.91;;;1.56;100.00
6034;BME280;3045;43.226;27.858;2023-01-30T06:53:05;66936.28;;;1.57;100.00
6034;BME280;3045;43.226;27.858;2023-01-30T06:55:33;66637.63;;;1.51;100.00
6034;BME280;3045;43.226;27.858;2023-01-30T06:58:01;67346.53;;;1.52;100.00
6034;BME280;3045;43.226;27.858;2023-01-30T07:00:28;69066.78;;;1.65;100.00
6034;BME280;3045;43.226;27.858;2023-01-30T07:02:56;71923.81;;;1.67;100.00
6034;BME280;3045;43.226;27.858;2023-01-30T07:05:23;74417.81;;;1.62;100.00
6034;BME280;3045;43.226;27.858;2023-01-30T07:07:50;74204.69;;;1.65;100.00
6034;BME280;3045;43.226;27.858;2023-01-30T07:10:17;72842.16;;;1.63;100.00
6034;BME280;3045;43.226;27.858;2023-01-30T07:12:44;73525.47;;;1.57;100.00
6034;BME280;3045;43.226;27.858;2023-01-30T07:15:12;75971.50;;;1.50;100.00
6034;BME280;3045;43.226;27.858;2023-01-30T07:17:39;76712.81;;;1.62;100.00
6034;BME280;3045;43.226;27.858;2023-01-30T07:20:09;75597.28;;;1.64;100.00
6034;BME280;3045;43.226;27.858;2023-01-30T07:22:36;77056.88;;;1.60;100.00
6034;BME280;3045;43.226;27.858;2023-01-30T07:25:04;77562.75;;;1.58;100.00
6034;BME280;3045;43.226;27.858;2023-01-30T07:27:32;75310.31;;;1.62;100.00
6034;BME280;3045;43.226;27.858;2023-01-30T07:29:59;74950.75;;;1.68;100.00
6034;BME280;3045;43.226;27.858;2023-01-30T07:32:26;77110.84;;;1.66;100.00
6034;BME280;3045;43.226;27.858;2023-01-30T07:34:53;78552.94;;;1.77;100.00
6034;BME280;3045;43.226;27.858;2023-01-30T07:37:21;81831.91;;;1.80;100.00
6034;BME280;3045;43.226;27.858;2023-01-30T07:39:48;86594.81;;;1.79;100.00
6034;BME280;3045;43.226;27.858;2023-01-30T07:42:15;92728.56;;;1.84;100.00
6034;BME280;3045;43.226;27.858;2023-01-30T07:44:45;94829.66;;;1.88;100.00
6034;BME280;3045;43.226;27.858;2023-01-30T07:47:12;97271.00;;;1.86;100.00
6034;BME280;3045;43.226;27.858;2023-01-30T07:49:39;108670.00;;;1.96;100.00
6034;BME280;3045;43.226;27.858;2023-01-30T07:52:06;116141.28;;;1.96;100.00
6034;BME280;3045;43.226;27.858;2023-01-30T07:54:35;114134.13;;;1.88;100.00
6034;BME280;3045;43.226;27.858;2023-01-30T07:57:03;113067.28;;;1.97;100.00
6034;BME280;3045;43.226;27.858;2023-01-30T07:59:30;112525.97;;;2.04;100.00
6034;BME280;3045;43.226;27.858;2023-01-30T08:02:00;114643.28;;;1.88;100.00
6034;BME280;3045;43.226;27.858;2023-01-30T08:04:27;123714.25;;;1.69;100.00
6034;BME280;3045;43.226;27.858;2023-01-30T08:06:54;131218.03;;;2.11;100.00
6034;BME280;3045;43.226;27.858;2023-01-30T08:09:23;139065.22;;;2.01;100.00
6034;BME280;3045;43.226;27.858;2023-01-30T08:11:51;144326.13;;;2.24;100.00
6034;BME280;3045;43.226;27.858;2023-01-30T08:14:19;146550.53;;;2.20;100.00
6034;BME280;3045;43.226;27.858;2023-01-30T08:16:46;146603.44;;;2.16;100.00
6034;BME280;3045;43.226;27.858;2023-01-30T08:19:13;146588.38;;;2.10;100.00
6034;BME280;3045;43.226;27.858;2023-01-30T08:21:40;146544.44;;;1.93;100.00
6034;BME280;3045;43.226;27.858;2023-01-30T08:24:07;146598.41;;;2.14;100.00
6034;BME280;3045;43.226;27.858;2023-01-30T08:26:34;146617.22;;;2.22;100.00
6034;BME280;3045;43.226;27.858;2023-01-30T08:29:02;146584.72;;;2.28;100.00
6034;BME280;3045;43.226;27.858;2023-01-30T08:31:29;146483.06;;;2.30;100.00
6034;BME280;3045;43.226;27.858;2023-01-30T08:33:56;146701.34;;;2.56;100.00
6034;BME280;3045;43.226;27.858;2023-01-30T08:36:23;146697.59;;;2.54;100.00
6034;BME280;3045;43.226;27.858;2023-01-30T08:38:49;146707.63;;;2.58;100.00
6034;BME280;3045;43.226;27.858;2023-01-30T08:41:16;146736.50;;;2.70;100.00
6034;BME280;3045;43.226;27.858;2023-01-30T08:43:43;146749.06;;;2.75;100.00
6034;BME280;3045;43.226;27.858;2023-01-30T08:46:11;146761.59;;;2.80;100.00
6034;BME280;3045;43.226;27.858;2023-01-30T08:48:38;146769.16;;;2.83;100.00
6034;BME280;3045;43.226;27.858;2023-01-30T08:51:07;146810.59;;;3.00;100.00
6034;BME280;3045;43.226;27.858;2023-01-30T08:53:34;146824.44;;;3.05;100.00
6034;BME280;3045;43.226;27.858;2023-01-30T08:56:01;146850.78;;;3.16;100.00
6034;BME280;3045;43.226;27.858;2023-01-30T08:58:28;146859.56;;;3.19;100.00
6034;BME280;3045;43.226;27.858;2023-01-30T09:00:55;146924.91;;;3.46;100.00
6034;BME280;3045;43.226;27.858;2023-01-30T09:03:23;146965.13;;;3.62;100.00
6034;BME280;3045;43.226;27.858;2023-01-30T09:05:53;146995.28;;;3.74;100.00
6034;BME280;3045;43.226;27.858;2023-01-30T09:08:21;147074.50;;;4.06;100.00
6034;BME280;3045;43.226;27.858;2023-01-30T09:10:49;147198.97;;;4.56;100.00
6034;BME280;3045;43.226;27.858;2023-01-30T09:13:16;147333.56;;;5.10;100.00
6034;BME280;3045;43.226;27.858;2023-01-30T09:15:43;147380.13;;;5.29;100.00
6034;BME280;3045;43.226;27.858;2023-01-30T09:18:10;147422.94;;;5.46;100.00
6034;BME280;3045;43.226;27.858;2023-01-30T09:20:38;147417.88;;;5.44;100.00
6034;BME280;3045;43.226;27.858;2023-01-30T09:23:05;147415.41;;;5.43;100.00
6034;BME280;3045;43.226;27.858;2023-01-30T09:25:32;147397.75;;;5.36;100.00
6034;BME280;3045;43.226;27.858;2023-01-30T09:27:59;147334.81;;;5.11;100.00
6034;BME280;3045;43.226;27.858;2023-01-30T09:30:26;147353.69;;;5.18;100.00
6034;BME280;3045;43.226;27.858;2023-01-30T09:32:53;147351.22;;;5.17;100.00
6034;BME280;3045;43.226;27.858;2023-01-30T09:35:20;147349.94;;;5.17;100.00
6034;BME280;3045;43.226;27.858;2023-01-30T09:37:52;147357.47;;;5.20;100.00
6034;BME280;3045;43.226;27.858;2023-01-30T09:40:22;147336.09;;;5.11;100.00
6034;BME280;3045;43.226;27.858;2023-01-30T09:43:01;147375.09;;;5.27;100.00
6034;BME280;3045;43.226;27.858;2023-01-30T09:45:45;147611.84;;;6.22;100.00
6034;BME280;3045;43.226;27.858;2023-01-30T09:48:20;147785.72;;;6.92;100.00
6034;BME280;3045;43.226;27.858;2023-01-30T09:51:08;147992.44;;;7.74;100.00
6034;BME280;3045;43.226;27.858;2023-01-30T09:53:57;148159.00;;;8.41;100.00
6034;BME280;3045;43.226;27.858;2023-01-30T09:56:25;148225.91;;;8.68;100.00
6034;BME280;3045;43.226;27.858;2023-01-30T09:58:55;148343.31;;;9.15;100.00
6034;BME280;3045;43.226;27.858;2023-01-30T10:01:28;148206.97;;;8.60;100.00
6034;BME280;3045;43.226;27.858;2023-01-30T10:04:05;148179.19;;;8.49;100.00
6034;BME280;3045;43.226;27.858;2023-01-30T10:06:40;148020.19;;;7.86;100.00
6034;BME280;3045;43.226;27.858;2023-01-30T10:09:14;147929.41;;;7.49;100.00
6034;BME280;3045;43.226;27.858;2023-01-30T10:11:54;148171.63;;;8.46;100.00
6034;BME280;3045;43.226;27.858;2023-01-30T10:14:38;148201.91;;;8.58;100.00
6034;BME280;3045;43.226;27.858;2023-01-30T10:20:10;148371.06;;;9.26;100.00
6034;BME280;3045;43.226;27.858;2023-01-30T10:22:49;148550.41;;;9.98;100.00
6034;BME280;3045;43.226;27.858;2023-01-30T10:25:29;148832.38;;;11.11;100.00
6034;BME280;3045;43.226;27.858;2023-01-30T10:28:05;148871.56;;;11.26;98.06
6034;BME280;3045;43.226;27.858;2023-01-30T10:30:35;148875.38;;;11.28;98.32
6034;BME280;3045;43.226;27.858;2023-01-30T10:33:05;148703.38;;;10.59;100.00
6034;BME280;3045;43.226;27.858;2023-01-30T10:35:36;148599.78;;;10.18;100.00
6034;BME280;3045;43.226;27.858;2023-01-30T10:38:11;148583.25;;;10.11;100.00
6034;BME280;3045;43.226;27.858;2023-01-30T10:40:47;149093.00;;;12.15;92.56
6034;BME280;3045;43.226;27.858;2023-01-30T10:43:21;149428.63;;;13.49;81.11
6034;BME280;3045;43.226;27.858;2023-01-30T10:45:56;149679.63;;;14.49;71.88
6034;BME280;3045;43.226;27.858;2023-01-30T10:48:54;149744.28;;;14.75;68.94
6034;BME280;3045;43.226;27.858;2023-01-30T10:51:41;149756.97;;;14.80;64.47
6034;BME280;3045;43.226;27.858;2023-01-30T10:54:15;149712.59;;;14.62;64.09
6034;BME280;3045;43.226;27.858;2023-01-30T10:56:49;149938.44;;;15.52;61.36
6034;BME280;3045;43.226;27.858;2023-01-30T10:59:23;149924.41;;;15.46;59.57
6034;BME280;3045;43.226;27.858;2023-01-30T11:01:59;150039.94;;;15.92;60.23
6034;BME280;3045;43.226;27.858;2023-01-30T11:04:36;149767.13;;;14.84;62.76
6034;BME280;3045;43.226;27.858;2023-01-30T11:07:06;149876.22;;;15.27;63.75
6034;BME280;3045;43.226;27.858;2023-01-30T11:09:38;149673.31;;;14.46;59.87
6034;BME280;3045;43.226;27.858;2023-01-30T11:12:06;149348.81;;;13.17;64.34
6034;BME280;3045;43.226;27.858;2023-01-30T11:14:50;148968.97;;;11.65;75.43
6034;BME280;3045;43.226;27.858;2023-01-30T11:17:18;148618.72;;;10.25;88.80
6034;BME280;3045;43.226;27.858;2023-01-30T11:19:53;148502.44;;;9.79;98.51
6034;BME280;3045;43.226;27.858;2023-01-30T11:22:22;148411.47;;;9.42;100.00
6034;BME280;3045;43.226;27.858;2023-01-30T11:25:00;148324.38;;;9.07;100.00
6034;BME280;3045;43.226;27.858;2023-01-30T11:27:31;148565.59;;;10.04;100.00
6034;BME280;3045;43.226;27.858;2023-01-30T11:30:05;149015.78;;;11.84;89.11
6034;BME280;3045;43.226;27.858;2023-01-30T11:32:32;149046.19;;;11.96;81.48
6034;BME280;3045;43.226;27.858;2023-01-30T11:35:17;148608.59;;;10.21;95.92
6034;BME280;3045;43.226;27.858;2023-01-30T11:37:45;148456.94;;;9.60;98.74
6034;BME280;3045;43.226;27.858;2023-01-30T11:40:22;148328.13;;;9.09;100.00
6034;BME280;3045;43.226;27.858;2023-01-30T11:42:57;148061.81;;;8.02;100.00
6034;BME280;3045;43.226;27.858;2023-01-30T11:45:24;147959.66;;;7.61;100.00
6034;BME280;3045;43.226;27.858;2023-01-30T11:47:56;147882.75;;;7.30;100.00
6034;BME280;3045;43.226;27.858;2023-01-30T11:50:28;147745.34;;;6.75;100.00
6034;BME280;3045;43.226;27.858;2023-01-30T11:53:01;147808.38;;;7.01;100.00
6034;BME280;3045;43.226;27.858;2023-01-30T11:55:30;147764.31;;;6.83;100.00
6034;BME280;3045;43.226;27.858;2023-01-30T11:58:02;147678.63;;;6.49;100.00
6034;BME280;3045;43.226;27.858;2023-01-30T12:00:37;147703.78;;;6.59;100.00
6034;BME280;3045;43.226;27.858;2023-01-30T12:03:10;147668.53;;;6.45;100.00
6034;BME280;3045;43.226;27.858;2023-01-30T12:05:39;147657.19;;;6.40;100.00
6034;BME280;3045;43.226;27.858;2023-01-30T12:08:12;147684.91;;;6.51;100.00
6034;BME280;3045;43.226;27.858;2023-01-30T12:10:40;147667.28;;;6.44;100.00
6034;BME280;3045;43.226;27.858;2023-01-30T12:13:14;147720.19;;;6.65;100.00
6034;BME280;3045;43.226;27.858;2023-01-30T12:15:44;147650.88;;;6.37;100.00
6034;BME280;3045;43.226;27.858;2023-01-30T12:18:17;147717.66;;;6.64;100.00
6034;BME280;3045;43.226;27.858;2023-01-30T12:20:52;147696.25;;;6.56;100.00
6034;BME280;3045;43.226;27.858;2023-01-30T12:23:37;147725.22;;;6.67;100.00
6034;BME280;3045;43.226;27.858;2023-01-30T12:26:12;147727.75;;;6.68;100.00
6034;BME280;3045;43.226;27.858;2023-01-30T12:28:46;147694.97;;;6.55;100.00
6034;BME280;3045;43.226;27.858;2023-01-30T12:31:18;147679.88;;;6.49;100.00
6034;BME280;3045;43.226;27.858;2023-01-30T12:33:48;147658.47;;;6.40;100.00
6034;BME280;3045;43.226;27.858;2023-01-30T12:36:25;147652.13;;;6.38;100.00
6034;BME280;3045;43.226;27.858;2023-01-30T12:39:10;147591.69;;;6.14;100.00
6034;BME280;3045;43.226;27.858;2023-01-30T12:41:59;147599.25;;;6.17;100.00
6034;BME280;3045;43.226;27.858;2023-01-30T12:44:49;147581.63;;;6.10;100.00
6034;BME280;3045;43.226;27.858;2023-01-30T12:47:33;147571.56;;;6.06;100.00
6034;BME280;3045;43.226;27.858;2023-01-30T12:50:28;147591.69;;;6.14;100.00
6034;BME280;3045;43.226;27.858;2023-01-30T12:53:18;147603.03;;;6.18;100.00
6034;BME280;3045;43.226;27.858;2023-01-30T12:56:02;147553.88;;;5.98;100.00
6034;BME280;3045;43.226;27.858;2023-01-30T12:58:41;147543.81;;;5.94;100.00
6034;BME280;3045;43.226;27.858;2023-01-30T13:01:19;147512.28;;;5.82;100.00
6034;BME280;3045;43.226;27.858;2023-01-30T13:03:54;147470.75;;;5.65;100.00
6034;BME280;3045;43.226;27.858;2023-01-30T13:06:35;147446.88;;;5.56;100.00
6034;BME280;3045;43.226;27.858;2023-01-30T13:09:19;147395.22;;;5.35;100.00
6034;BME280;3045;43.226;27.858;2023-01-30T13:11:55;147395.22;;;5.35;100.00
6034;BME280;3045;43.226;27.858;2023-01-30T13:14:31;147360.00;;;5.21;100.00
6034;BME280;3045;43.226;27.858;2023-01-30T13:17:11;147336.09;;;5.11;100.00
6034;BME280;3045;43.226;27.858;2023-01-30T13:19:44;147302.09;;;4.97;100.00
6034;BME280;3045;43.226;27.858;2023-01-30T13:22:17;147293.31;;;4.94;100.00
6034;BME280;3045;43.226;27.858;2023-01-30T13:24:53;147289.50;;;4.92;100.00